createdAt,value
2023-05-03T00:02:10.676Z,9.03
2023-05-03T00:04:59.685Z,8.60
2023-05-03T00:07:51.301Z,11.83
2023-05-03T00:10:38.590Z,9.63
2023-05-03T00:13:26.508Z,10.97
2023-05-03T00:16:13.726Z,11.53
2023-05-03T00:19:02.667Z,9.50
2023-05-03T00:21:49.850Z,9.13
2023-05-03T00:24:37.305Z,11.23
2023-05-03T00:27:31.355Z,8.63
2023-05-03T00:30:22.041Z,10.20
2023-05-03T00:33:09.255Z,10.50
2023-05-03T00:35:58.323Z,11.77
2023-05-03T00:38:46.422Z,8.07
2023-05-03T00:41:34.183Z,11.13
2023-05-03T00:44:21.165Z,12.03
2023-05-03T00:47:12.682Z,11.53
2023-05-03T00:50:05.493Z,10.83
2023-05-03T00:52:54.414Z,9.20
2023-05-03T00:55:44.577Z,14.07
2023-05-03T00:58:35.685Z,11.23
2023-05-03T01:01:24.376Z,9.77
2023-05-03T01:04:12.979Z,14.37
2023-05-03T01:07:17.957Z,12.87
2023-05-03T01:10:19.538Z,7.70
2023-05-03T01:13:15.225Z,11.37
2023-05-03T01:16:07.691Z,13.07
2023-05-03T01:19:01.550Z,9.77
2023-05-03T01:22:01.189Z,12.90
2023-05-03T01:24:53.757Z,10.20
2023-05-03T01:27:43.546Z,11.73
2023-05-03T01:30:35.535Z,13.60
2023-05-03T01:33:33.003Z,11.87
2023-05-03T01:36:28.477Z,10.93
2023-05-03T01:39:21.441Z,12.00
2023-05-03T01:42:08.812Z,9.33
2023-05-03T01:45:04.868Z,9.63
2023-05-03T01:47:51.923Z,12.00
2023-05-03T01:50:39.725Z,13.97
2023-05-03T01:53:27.236Z,13.40
2023-05-03T01:56:14.836Z,8.73
2023-05-03T01:59:02.065Z,12.87
2023-05-03T02:01:50.943Z,11.00
2023-05-03T02:04:39.125Z,13.43
2023-05-03T02:07:30.486Z,10.17
2023-05-03T02:10:17.595Z,13.67
2023-05-03T02:13:04.874Z,9.90
2023-05-03T02:15:52.769Z,10.47
2023-05-03T02:18:41.892Z,11.00
2023-05-03T02:21:29.430Z,11.83
2023-05-03T02:24:17.079Z,14.03
2023-05-03T02:27:05.155Z,12.70
2023-05-03T02:29:52.595Z,11.43
2023-05-03T02:32:40.254Z,9.37
2023-05-03T02:35:31.732Z,10.00
2023-05-03T02:38:19.103Z,11.67
2023-05-03T02:41:06.896Z,14.03
2023-05-03T02:43:57.243Z,14.13
2023-05-03T02:46:44.567Z,12.77
2023-05-03T02:49:33.040Z,16.47
2023-05-03T02:52:21.754Z,13.20
2023-05-03T02:55:10.549Z,9.47
2023-05-03T02:58:01.241Z,11.10
2023-05-03T03:00:48.740Z,10.63
2023-05-03T03:03:39.536Z,10.83
2023-05-03T03:06:27.501Z,8.70
2023-05-03T03:09:25.172Z,8.13
2023-05-03T03:12:12.500Z,10.60
2023-05-03T03:15:01.013Z,9.73
2023-05-03T03:17:48.847Z,10.57
2023-05-03T03:20:36.394Z,14.33
2023-05-03T03:23:25.852Z,9.57
2023-05-03T03:26:14.824Z,11.77
2023-05-03T03:29:03.491Z,10.77
2023-05-03T03:31:50.765Z,10.73
2023-05-03T03:34:37.982Z,12.13
2023-05-03T03:37:25.298Z,10.73
2023-05-03T03:40:13.653Z,11.10
2023-05-03T03:43:02.376Z,8.37
2023-05-03T03:45:49.637Z,10.47
2023-05-03T03:48:37.428Z,8.73
2023-05-03T03:51:26.114Z,12.20
2023-05-03T03:54:13.082Z,13.90
2023-05-03T03:57:00.150Z,10.47
2023-05-03T03:59:48.977Z,8.30
2023-05-03T04:02:37.115Z,10.83
2023-05-03T04:05:24.728Z,11.93
2023-05-03T04:08:12.502Z,9.93
2023-05-03T04:11:01.000Z,12.53
2023-05-03T04:13:49.583Z,16.47
2023-05-03T04:16:38.569Z,12.37
2023-05-03T04:19:26.507Z,11.23
2023-05-03T04:22:14.290Z,13.90
2023-05-03T04:25:02.139Z,9.03
2023-05-03T04:27:49.447Z,10.00
2023-05-03T04:30:38.058Z,8.87
2023-05-03T04:33:30.731Z,13.40
2023-05-03T04:36:19.194Z,12.97
2023-05-03T04:39:06.968Z,10.70
2023-05-03T04:41:54.455Z,11.90
2023-05-03T04:44:41.684Z,10.83
2023-05-03T04:47:28.783Z,9.63
2023-05-03T04:50:17.110Z,11.30
2023-05-03T04:53:04.635Z,8.23
2023-05-03T04:55:51.855Z,12.47
2023-05-03T04:58:38.901Z,13.40
2023-05-03T05:01:28.662Z,9.83
2023-05-03T05:04:18.850Z,12.13
2023-05-03T05:07:07.825Z,11.13
2023-05-03T05:09:55.651Z,10.87
2023-05-03T05:12:43.339Z,7.00
2023-05-03T05:15:30.732Z,11.20
2023-05-03T05:18:20.885Z,15.27
2023-05-03T05:21:08.390Z,15.40
2023-05-03T05:23:57.285Z,13.67
2023-05-03T05:26:47.265Z,10.80
2023-05-03T05:29:34.800Z,13.23
2023-05-03T05:32:22.500Z,15.23
2023-05-03T05:35:12.619Z,15.43
2023-05-03T05:38:00.069Z,12.23
2023-05-03T05:40:49.279Z,17.23
2023-05-03T05:43:39.602Z,12.03
2023-05-03T05:46:27.072Z,12.23
2023-05-03T05:49:14.587Z,17.27
2023-05-03T05:52:01.777Z,14.10
2023-05-03T05:54:48.818Z,16.90
2023-05-03T05:57:37.151Z,16.47
2023-05-03T06:00:24.834Z,15.37
2023-05-03T06:03:12.440Z,16.93
2023-05-03T06:05:59.918Z,14.53
2023-05-03T06:08:49.829Z,12.87
2023-05-03T06:11:38.309Z,14.80
2023-05-03T06:14:26.954Z,17.33
2023-05-03T06:17:14.305Z,15.17
2023-05-03T06:20:02.147Z,13.07
2023-05-03T06:22:49.136Z,11.73
2023-05-03T06:25:37.212Z,13.17
2023-05-03T06:28:27.254Z,13.93
2023-05-03T06:31:15.574Z,15.67
2023-05-03T06:34:02.335Z,18.43
2023-05-03T06:36:49.529Z,13.83
2023-05-03T06:39:36.849Z,15.27
2023-05-03T06:42:24.046Z,9.90
2023-05-03T06:45:13.567Z,10.32
2023-05-03T06:48:02.219Z,9.88
2023-05-03T06:50:49.480Z,12.48
2023-05-03T06:53:39.271Z,10.68
2023-05-03T06:56:26.027Z,10.77
2023-05-03T06:59:12.917Z,14.18
2023-05-03T07:01:59.667Z,13.00
2023-05-03T07:04:48.193Z,11.00
2023-05-03T07:07:41.363Z,14.25
2023-05-03T07:10:31.336Z,12.10
2023-05-03T07:13:18.571Z,12.80
2023-05-03T07:16:05.905Z,16.25
2023-05-03T07:18:56.323Z,12.65
2023-05-03T07:21:44.916Z,12.02
2023-05-03T07:24:32.052Z,12.75
2023-05-03T07:27:19.113Z,10.90
2023-05-03T07:30:08.219Z,12.38
2023-05-03T07:32:55.553Z,12.45
2023-05-03T07:35:46.703Z,11.68
2023-05-03T07:38:37.983Z,15.02
2023-05-03T07:41:25.258Z,12.45
2023-05-03T07:44:12.278Z,11.15
2023-05-03T07:46:59.811Z,11.77
2023-05-03T07:49:47.942Z,10.60
2023-05-03T07:52:38.089Z,12.40
2023-05-03T07:55:26.725Z,14.05
2023-05-03T07:58:13.555Z,14.10
2023-05-03T08:01:00.382Z,14.52
2023-05-03T08:03:50.829Z,11.13
2023-05-03T08:06:38.689Z,12.43
2023-05-03T08:09:25.767Z,10.55
2023-05-03T08:12:14.061Z,10.88
2023-05-03T08:15:01.148Z,12.40
2023-05-03T08:17:48.114Z,11.25
2023-05-03T08:20:36.881Z,11.45
2023-05-03T08:23:23.873Z,11.95
2023-05-03T08:26:11.116Z,9.93
2023-05-03T08:28:59.903Z,10.20
2023-05-03T08:31:47.531Z,12.02
2023-05-03T08:34:35.275Z,10.68
2023-05-03T08:37:22.437Z,13.75
2023-05-03T08:40:12.060Z,9.88
2023-05-03T08:43:08.184Z,10.73
2023-05-03T08:45:56.762Z,7.75
2023-05-03T08:48:49.203Z,9.95
2023-05-03T08:51:36.348Z,10.38
2023-05-03T08:54:24.277Z,10.45
2023-05-03T08:57:14.912Z,10.60
2023-05-03T09:00:02.691Z,11.55
2023-05-03T09:02:51.872Z,9.35
2023-05-03T09:05:41.204Z,12.23
2023-05-03T09:08:28.764Z,10.43
2023-05-03T09:11:22.460Z,8.68
2023-05-03T09:14:11.609Z,8.70
2023-05-03T09:17:16.274Z,11.25
2023-05-03T09:20:05.172Z,8.02
2023-05-03T09:22:53.664Z,13.38
2023-05-03T09:25:45.624Z,7.50
2023-05-03T09:28:43.669Z,8.30
2023-05-03T09:31:31.816Z,9.73
2023-05-03T09:34:25.251Z,9.32
2023-05-03T09:37:19.079Z,8.95
2023-05-03T09:40:11.748Z,8.02
2023-05-03T09:43:13.157Z,8.15
2023-05-03T09:46:11.443Z,9.65
2023-05-03T09:48:58.544Z,8.70
2023-05-03T09:51:46.750Z,8.88
2023-05-03T09:54:36.143Z,10.07
2023-05-03T09:57:23.549Z,7.80
2023-05-03T10:00:13.717Z,8.57
2023-05-03T10:03:04.060Z,10.40
2023-05-03T10:05:52.787Z,8.32
2023-05-03T10:08:43.223Z,7.72
2023-05-03T10:11:31.269Z,8.77
2023-05-03T10:14:21.640Z,8.15
2023-05-03T10:17:13.229Z,7.57
2023-05-03T10:20:10.853Z,10.32
2023-05-03T10:23:12.245Z,6.95
2023-05-03T10:26:15.884Z,8.85
2023-05-03T10:29:04.683Z,7.05
2023-05-03T10:31:51.819Z,7.90
2023-05-03T10:34:40.384Z,8.90
2023-05-03T10:37:28.833Z,10.40
2023-05-03T10:40:17.494Z,10.50
2023-05-03T10:43:04.953Z,8.55
2023-05-03T10:45:53.103Z,8.60
2023-05-03T10:48:39.818Z,8.20
2023-05-03T10:51:38.898Z,8.25
2023-05-03T10:54:26.066Z,10.45
2023-05-03T10:57:14.123Z,7.43
2023-05-03T11:00:02.498Z,8.23
2023-05-03T11:03:14.581Z,7.35
2023-05-03T11:06:03.202Z,6.18
2023-05-03T11:08:50.651Z,8.27
2023-05-03T11:11:39.629Z,7.20
2023-05-03T11:14:29.344Z,7.10
2023-05-03T11:17:16.460Z,7.63
2023-05-03T11:20:08.694Z,8.05
2023-05-03T11:22:55.604Z,7.88
2023-05-03T11:25:42.268Z,6.07
2023-05-03T11:28:29.423Z,7.57
2023-05-03T11:31:16.727Z,7.53
2023-05-03T11:34:03.468Z,7.50
2023-05-03T11:36:51.568Z,7.22
2023-05-03T11:39:39.178Z,7.47
2023-05-03T11:42:28.188Z,7.40
2023-05-03T11:45:15.752Z,7.63
2023-05-03T11:48:03.113Z,8.30
2023-05-03T11:50:55.597Z,13.40
2023-05-03T11:53:44.148Z,12.48
2023-05-03T11:56:31.627Z,8.40
2023-05-03T11:59:18.757Z,8.23
2023-05-03T12:02:07.765Z,9.88
2023-05-03T12:04:58.110Z,8.15
2023-05-03T12:07:47.658Z,13.60
2023-05-03T12:10:38.362Z,8.85
2023-05-03T12:13:33.791Z,7.88
2023-05-03T12:16:23.209Z,7.38
2023-05-03T12:19:15.877Z,8.05
2023-05-03T12:22:24.214Z,8.07
2023-05-03T12:25:11.508Z,8.15
2023-05-03T12:30:54.928Z,8.38
2023-05-03T12:33:43.875Z,8.00
2023-05-03T12:36:32.498Z,7.82
2023-05-03T12:39:21.934Z,8.23
2023-05-03T12:42:09.843Z,10.38
2023-05-03T12:45:03.964Z,8.55
2023-05-03T12:47:51.583Z,7.00
2023-05-03T12:50:39.661Z,6.80
2023-05-03T12:53:28.020Z,7.00
2023-05-03T12:56:15.914Z,5.90
2023-05-03T12:59:31.671Z,7.60
2023-05-03T13:05:07.993Z,6.45
2023-05-03T13:07:59.443Z,8.68
2023-05-03T13:10:47.962Z,6.93
2023-05-03T13:13:35.546Z,7.32
2023-05-03T13:16:22.348Z,7.78
2023-05-03T13:19:10.535Z,6.90
2023-05-03T13:21:57.290Z,7.15
2023-05-03T13:24:46.443Z,7.28
2023-05-03T13:27:33.866Z,6.80
2023-05-03T13:30:21.764Z,7.18
2023-05-03T13:33:08.821Z,6.28
2023-05-03T13:35:57.560Z,7.00
2023-05-03T13:38:47.583Z,8.32
2023-05-03T13:41:34.726Z,7.38
2023-05-03T13:44:25.487Z,6.45
2023-05-03T13:47:12.271Z,6.25
2023-05-03T13:50:01.601Z,4.57
2023-05-03T13:52:49.988Z,4.80
2023-05-03T13:55:37.116Z,6.57
2023-05-03T13:58:24.201Z,5.15
2023-05-03T14:01:14.013Z,9.05
2023-05-03T14:04:00.951Z,7.82
2023-05-03T14:06:48.672Z,6.30
2023-05-03T14:09:39.569Z,5.75
2023-05-03T14:12:27.755Z,5.68
2023-05-03T14:15:15.165Z,6.68
2023-05-03T14:18:05.358Z,7.07
2023-05-03T14:20:53.324Z,6.13
2023-05-03T14:23:42.358Z,9.95
2023-05-03T14:26:30.702Z,6.88
2023-05-03T14:29:17.882Z,5.53
2023-05-03T14:32:04.660Z,7.18
2023-05-03T14:34:51.737Z,5.13
2023-05-03T14:37:39.828Z,8.07
2023-05-03T14:40:29.298Z,5.25
2023-05-03T14:43:18.061Z,7.60
2023-05-03T14:46:05.667Z,4.50
2023-05-03T14:48:52.883Z,4.25
2023-05-03T14:51:44.294Z,5.50
2023-05-03T14:54:32.372Z,5.18
2023-05-03T14:57:19.218Z,6.20
2023-05-03T15:00:14.289Z,7.97
2023-05-03T15:03:01.719Z,5.68
2023-05-03T15:05:51.331Z,4.82
2023-05-03T15:08:39.753Z,5.63
2023-05-03T15:11:27.511Z,6.53
2023-05-03T15:14:14.806Z,8.15
2023-05-03T15:17:03.315Z,4.50
2023-05-03T15:19:50.560Z,3.85
2023-05-03T15:22:37.620Z,6.20
2023-05-03T15:25:24.881Z,5.97
2023-05-03T15:28:11.923Z,5.35
2023-05-03T15:30:59.063Z,5.78
2023-05-03T15:33:47.571Z,5.30
2023-05-03T15:36:36.672Z,5.32
2023-05-03T15:39:26.969Z,9.63
2023-05-03T15:42:16.565Z,6.72
2023-05-03T15:45:03.455Z,4.68
2023-05-03T15:47:50.986Z,5.65
2023-05-03T15:50:39.420Z,8.13
2023-05-03T15:53:27.739Z,5.85
2023-05-03T15:56:14.695Z,5.75
2023-05-03T15:59:01.738Z,6.93
2023-05-03T16:01:49.396Z,7.00
2023-05-03T16:04:38.962Z,7.07
2023-05-03T16:07:27.923Z,6.03
2023-05-03T16:10:15.209Z,7.35
2023-05-03T16:13:02.829Z,6.30
2023-05-03T16:15:52.642Z,7.45
2023-05-03T16:18:41.175Z,14.88
2023-05-03T16:21:28.529Z,7.47
2023-05-03T16:24:17.218Z,6.25
2023-05-03T16:27:04.147Z,6.40
2023-05-03T16:29:51.676Z,6.75
2023-05-03T16:32:38.800Z,5.78
2023-05-03T16:35:26.238Z,6.15
2023-05-03T16:38:13.438Z,5.68
2023-05-03T16:41:02.932Z,5.75
2023-05-03T16:43:49.828Z,7.15
2023-05-03T16:46:37.817Z,6.20
2023-05-03T16:49:24.521Z,5.55
2023-05-03T16:52:11.920Z,6.72
2023-05-03T16:54:58.667Z,5.03
2023-05-03T16:57:47.153Z,7.45
2023-05-03T17:00:34.103Z,5.47
2023-05-03T17:03:21.167Z,7.03
2023-05-03T17:06:08.947Z,5.82
2023-05-03T17:08:56.088Z,7.85
2023-05-03T17:11:43.014Z,7.10
2023-05-03T17:14:32.392Z,5.85
2023-05-03T17:17:21.641Z,6.47
2023-05-03T17:20:10.793Z,5.32
2023-05-03T17:22:57.815Z,5.20
2023-05-03T17:25:44.822Z,6.22
2023-05-03T17:28:35.440Z,4.32
2023-05-03T17:31:23.704Z,4.15
2023-05-03T17:34:10.888Z,8.48
2023-05-03T17:37:00.549Z,5.65
2023-05-03T17:39:47.415Z,5.70
2023-05-03T17:42:34.598Z,4.97
2023-05-03T17:45:24.372Z,6.55
2023-05-03T17:48:13.272Z,5.10
2023-05-03T17:51:00.203Z,6.35
2023-05-03T17:53:48.676Z,5.03
2023-05-03T17:56:35.516Z,5.65
2023-05-03T17:59:22.549Z,5.32
2023-05-03T18:02:09.576Z,10.25
2023-05-03T18:04:58.345Z,6.15
2023-05-03T18:07:45.734Z,8.80
2023-05-03T18:10:32.538Z,6.70
2023-05-03T18:13:19.533Z,6.28
2023-05-03T18:16:08.423Z,6.60
2023-05-03T18:18:55.036Z,5.43
2023-05-03T18:21:44.319Z,4.53
2023-05-03T18:24:32.430Z,6.18
2023-05-03T18:27:21.026Z,5.50
2023-05-03T18:30:10.773Z,5.60
2023-05-03T18:32:57.976Z,7.05
2023-05-03T18:35:49.003Z,7.80
2023-05-03T18:38:38.025Z,6.38
2023-05-03T18:41:25.180Z,6.27
2023-05-03T18:44:11.856Z,8.17
2023-05-03T18:46:58.881Z,10.23
2023-05-03T18:49:48.595Z,8.13
2023-05-03T18:52:35.869Z,7.10
2023-05-03T18:55:25.533Z,7.00
2023-05-03T18:58:12.370Z,7.97
2023-05-03T19:01:00.525Z,7.50
2023-05-03T19:03:47.461Z,6.67
2023-05-03T19:06:34.529Z,6.13
2023-05-03T19:09:21.761Z,6.37
2023-05-03T19:12:11.134Z,6.80
2023-05-03T19:14:58.281Z,7.63
2023-05-03T19:17:46.790Z,8.97
2023-05-03T19:20:33.966Z,6.97
2023-05-03T19:23:21.285Z,7.77
2023-05-03T19:26:08.058Z,8.13
2023-05-03T19:29:01.059Z,9.07
2023-05-03T19:31:48.201Z,8.40
2023-05-03T19:34:36.425Z,12.27
2023-05-03T19:37:23.396Z,8.70
2023-05-03T19:40:11.601Z,8.37
2023-05-03T19:42:59.157Z,6.30
2023-05-03T19:45:47.495Z,7.10
2023-05-03T19:48:37.381Z,6.40
2023-05-03T19:51:24.258Z,6.90
2023-05-03T19:54:14.367Z,7.73
2023-05-03T19:57:06.189Z,6.73
2023-05-03T19:59:53.149Z,8.83
2023-05-03T20:02:41.868Z,7.70
2023-05-03T20:05:28.986Z,5.87
2023-05-03T20:08:15.717Z,5.00
2023-05-03T20:11:02.872Z,7.17
2023-05-03T20:13:51.235Z,5.93
2023-05-03T20:16:39.989Z,5.83
2023-05-03T20:19:29.323Z,6.93
2023-05-03T20:22:16.569Z,7.10
2023-05-03T20:25:03.474Z,7.83
2023-05-03T20:27:50.676Z,7.30
2023-05-03T20:30:37.739Z,7.93
2023-05-03T20:33:24.762Z,7.73
2023-05-03T20:36:14.055Z,9.03
2023-05-03T20:39:00.931Z,6.87
2023-05-03T20:41:47.900Z,7.23
2023-05-03T20:44:34.753Z,9.17
2023-05-03T20:47:22.250Z,9.63
2023-05-03T20:50:10.497Z,11.13
2023-05-03T20:52:59.761Z,5.80
2023-05-03T20:55:46.641Z,7.73
2023-05-03T20:58:33.864Z,7.77
2023-05-03T21:01:22.292Z,6.90
2023-05-03T21:04:09.456Z,6.47
2023-05-03T21:06:56.332Z,7.07
2023-05-03T21:09:44.742Z,6.87
2023-05-03T21:12:31.988Z,8.00
2023-05-03T21:15:19.162Z,8.77
2023-05-03T21:18:06.826Z,6.40
2023-05-03T21:20:54.721Z,9.83
2023-05-03T21:23:41.663Z,6.90
2023-05-03T21:26:30.321Z,6.20
2023-05-03T21:29:18.969Z,7.63
2023-05-03T21:32:06.636Z,6.97
2023-05-03T21:34:54.557Z,7.87
2023-05-03T21:37:42.101Z,7.33
2023-05-03T21:40:29.240Z,8.37
2023-05-03T21:43:18.149Z,8.00
2023-05-03T21:46:08.533Z,6.27
2023-05-03T21:48:55.798Z,6.97
2023-05-03T21:51:43.449Z,9.73
2023-05-03T21:54:30.502Z,6.93
2023-05-03T21:57:18.903Z,7.67
2023-05-03T22:00:15.370Z,7.70
2023-05-03T22:03:02.707Z,6.13
2023-05-03T22:05:51.513Z,5.87
2023-05-03T22:08:38.518Z,5.33
2023-05-03T22:11:26.082Z,6.57
2023-05-03T22:14:16.774Z,8.53
2023-05-03T22:17:05.419Z,7.37
2023-05-03T22:19:52.625Z,7.10
2023-05-03T22:22:39.624Z,7.90
2023-05-03T22:25:28.917Z,6.50
2023-05-03T22:28:17.551Z,7.17
2023-05-03T22:31:04.842Z,10.53
2023-05-03T22:33:53.137Z,7.63
2023-05-03T22:36:40.678Z,10.17
2023-05-03T22:39:28.207Z,8.03
2023-05-03T22:42:15.175Z,7.27
2023-05-03T22:45:02.588Z,7.43
2023-05-03T22:47:50.306Z,8.97
2023-05-03T22:50:39.138Z,7.03
2023-05-03T22:53:26.692Z,6.43
2023-05-03T22:56:14.776Z,7.67
2023-05-03T22:59:01.961Z,6.27
2023-05-03T23:01:49.893Z,9.07
2023-05-03T23:04:40.191Z,7.77
2023-05-03T23:07:29.174Z,8.73
2023-05-03T23:10:19.890Z,6.90
2023-05-03T23:13:07.564Z,10.17
2023-05-03T23:15:57.878Z,7.53
2023-05-03T23:18:45.333Z,10.40
2023-05-03T23:21:35.227Z,8.40
2023-05-03T23:24:23.845Z,8.77
2023-05-03T23:27:12.617Z,7.83
2023-05-03T23:30:00.944Z,6.97
2023-05-03T23:32:48.421Z,6.73
2023-05-03T23:35:36.989Z,8.40
2023-05-03T23:38:29.248Z,8.20
2023-05-03T23:41:20.875Z,7.20
2023-05-03T23:44:10.833Z,8.53
2023-05-03T23:47:01.371Z,7.80
2023-05-03T23:49:52.238Z,9.27
2023-05-03T23:52:43.215Z,9.17
2023-05-03T23:55:32.368Z,8.43
2023-05-03T23:58:21.315Z,8.00
